Taisho Maru — JI3307 — position and weather

sailwx.info

Track history (hours):
 
Tides and Currents Weather Stations Pressure Air Temp Water Temp Dewpoint Dewpoint Depression Visibility Wind Speed Wind Dir Waves Ship Positions

Taisho Maru

Last reported at 2014-Jul-29 08:33 UTC. Time now 2014-Jul-29 14:54 UTC.
Position N 34°08' E 135°06'.

Length 93 m; draft 7.3 m.

Type: Cargo ship. MMSI: 431300084.

Date/timePositionNaut miles runAvg speedWind from/ knotsBaromVisibWave heightAir tempDewpointWater temp
2014-Jul-29 08:33N 34°08' E 135°06'1212.1
2014-Jul-29 07:33N 34°18' E 134°59'1312.5
2014-Jul-29 06:33N 34°30' E 135°02'1110.5
2014-Jul-29 05:33N 34°37' E 134°53'0 0.0
2014-Jul-27 22:32N 34°37' E 134°53'1212.0
2014-Jul-27 21:34N 34°33' E 135°06'1412.5
2014-Jul-27 20:28N 34°20' E 135°01'8 9.0
2014-Jul-27 19:33N 34°14' E 135°07'1 0.7
2014-Jul-27 18:33N 34°14' E 135°08'0 0.0
2014-Jul-27 17:33N 34°14' E 135°08'0 0.0
2014-Jul-27 16:29N 34°14' E 135°08'0 0.0
2014-Jul-27 15:32N 34°14' E 135°08'0 0.0
2014-Jul-27 14:32N 34°14' E 135°08'0 0.0
2014-Jul-27 13:32N 34°14' E 135°08'0 0.0
2014-Jul-27 12:29N 34°14' E 135°08'0 0.0
2014-Jul-27 11:32N 34°14' E 135°08'5 4.6
2014-Jul-27 10:34N 34°11' E 135°04'21010.4
2014-Jul-26 14:20N 34°49' E 139°15'911.6
2014-Jul-26 13:33N 34°54' E 139°24'1110.8
2014-Jul-26 12:33N 35°01' E 139°34'1212.0
2014-Jul-26 11:33N 35°09' E 139°44'1111.3
2014-Jul-26 10:33N 35°21' E 139°42'8 8.3
2014-Jul-26 09:33N 35°29' E 139°40'0 0.0
2014-Jul-26 08:33N 35°29' E 139°40'0 0.0
2014-Jul-26 07:33N 35°29' E 139°40'0 0.0
2014-Jul-26 06:33N 35°29' E 139°40'0 0.0
2014-Jul-26 05:33N 35°29' E 139°40'0 0.0
2014-Jul-26 04:33N 35°29' E 139°40'0 0.0
2014-Jul-26 03:33N 35°29' E 139°40'0 0.0
2014-Jul-26 02:33N 35°29' E 139°40'0 0.0
2014-Jul-26 01:33N 35°29' E 139°40'0 0.0
2014-Jul-26 00:33N 35°29' E 139°40'0 0.0
2014-Jul-25 23:33N 35°29' E 139°40'3 3.1
2014-Jul-25 22:32N 35°26' E 139°42'0 0.0
2014-Jul-25 21:32N 35°26' E 139°42'0 0.0
2014-Jul-25 20:32N 35°26' E 139°42'0 0.0
2014-Jul-25 19:32N 35°26' E 139°42'0 0.1
2014-Jul-25 18:32N 35°26' E 139°42'0 0.1
2014-Jul-25 17:32N 35°26' E 139°42'0 0.1
2014-Jul-25 16:32N 35°26' E 139°42'7 6.9
2014-Jul-25 15:34N 35°19' E 139°43'1211.5
2014-Jul-25 14:33N 35°08' E 139°46'1211.9
2014-Jul-25 13:34N 34°59' E 139°36'1613.9
2014-Jul-25 12:25N 34°50' E 139°20'24312.1
2014-Jul-24 16:16N 33°23' E 134°46'  
Track history (hours):
 
Tides and Currents Weather Stations Pressure Air Temp Water Temp Dewpoint Dewpoint Depression Visibility Wind Speed Wind Dir Waves Ship Positions

Taisho Maru

Last reported at 2014-Jul-29 08:33 UTC. Time now 2014-Jul-29 14:54 UTC.
Position N 34°08' E 135°06'.

Length 93 m; draft 7.3 m.

Type: Cargo ship. MMSI: 431300084.

Date/timePositionNaut miles runAvg speedWind from/ knotsBaromVisibWave heightAir tempDewpointWater temp
2014-Jul-29 08:33N 34°08' E 135°06'1212.1
2014-Jul-29 07:33N 34°18' E 134°59'1312.5
2014-Jul-29 06:33N 34°30' E 135°02'1110.5
2014-Jul-29 05:33N 34°37' E 134°53'0 0.0
2014-Jul-27 22:32N 34°37' E 134°53'1212.0
2014-Jul-27 21:34N 34°33' E 135°06'1412.5
2014-Jul-27 20:28N 34°20' E 135°01'8 9.0
2014-Jul-27 19:33N 34°14' E 135°07'1 0.7
2014-Jul-27 18:33N 34°14' E 135°08'0 0.0
2014-Jul-27 17:33N 34°14' E 135°08'0 0.0
2014-Jul-27 16:29N 34°14' E 135°08'0 0.0
2014-Jul-27 15:32N 34°14' E 135°08'0 0.0
2014-Jul-27 14:32N 34°14' E 135°08'0 0.0
2014-Jul-27 13:32N 34°14' E 135°08'0 0.0
2014-Jul-27 12:29N 34°14' E 135°08'0 0.0
2014-Jul-27 11:32N 34°14' E 135°08'5 4.6
2014-Jul-27 10:34N 34°11' E 135°04'21010.4
2014-Jul-26 14:20N 34°49' E 139°15'911.6
2014-Jul-26 13:33N 34°54' E 139°24'1110.8
2014-Jul-26 12:33N 35°01' E 139°34'1212.0
2014-Jul-26 11:33N 35°09' E 139°44'1111.3
2014-Jul-26 10:33N 35°21' E 139°42'8 8.3
2014-Jul-26 09:33N 35°29' E 139°40'0 0.0
2014-Jul-26 08:33N 35°29' E 139°40'0 0.0
2014-Jul-26 07:33N 35°29' E 139°40'0 0.0
2014-Jul-26 06:33N 35°29' E 139°40'0 0.0
2014-Jul-26 05:33N 35°29' E 139°40'0 0.0
2014-Jul-26 04:33N 35°29' E 139°40'0 0.0
2014-Jul-26 03:33N 35°29' E 139°40'0 0.0
2014-Jul-26 02:33N 35°29' E 139°40'0 0.0
2014-Jul-26 01:33N 35°29' E 139°40'0 0.0
2014-Jul-26 00:33N 35°29' E 139°40'0 0.0
2014-Jul-25 23:33N 35°29' E 139°40'3 3.1
2014-Jul-25 22:32N 35°26' E 139°42'0 0.0
2014-Jul-25 21:32N 35°26' E 139°42'0 0.0
2014-Jul-25 20:32N 35°26' E 139°42'0 0.0
2014-Jul-25 19:32N 35°26' E 139°42'0 0.1
2014-Jul-25 18:32N 35°26' E 139°42'0 0.1
2014-Jul-25 17:32N 35°26' E 139°42'0 0.1
2014-Jul-25 16:32N 35°26' E 139°42'7 6.9
2014-Jul-25 15:34N 35°19' E 139°43'1211.5
2014-Jul-25 14:33N 35°08' E 139°46'1211.9
2014-Jul-25 13:34N 34°59' E 139°36'1613.9
2014-Jul-25 12:25N 34°50' E 139°20'24312.1
2014-Jul-24 16:16N 33°23' E 134°46'  

Dump ship's entire track history